Terminal Aerodrome Forecast
Issued by NWS

Home | Current Version | Previous Version | Text Only | Print | Product List | Glossary On
Versions: 1 2 3 4 5 6 7 8 9 10 11 12 13 14 15
797
FTAK31 PAJN 040523
TAFAJN
TAF
PAJN 040523Z 0406/0506 11008KT P6SM VCSH SCT040 BKN050 BKN080
     FM041000 13004KT P6SM -SHRA BKN035 BKN060
     FM041800 13010KT P6SM -SHRA BKN040 OVC060
     FM050200 13010KT P6SM VCSH BKN035 OVC050=

USA.gov is the U.S. government's official web portal to all federal, state and local government web resources and services.